Time;durP1;ratioP1;P1;durP2;ratioP2;P2;SDS_P1;SDS_P2;PMS_P1;PMS_P2;Temp;Humidity;BMP_temperature;BMP_pressure;BME280_temperature;BME280_humidity;BME280_pressure;Samples;Min_cycle;Max_cycle;Signal;HPM_P1;HPM_P2
2022/10/29 00:00:40;;;;;;;6.00;2.87;;;16.50;99.90;;;;;;5021409;28;20407;-69
2022/10/29 00:03:06;;;;;;;6.30;3.00;;;16.60;99.90;;;;;;5033306;28;20430;-69
2022/10/29 00:05:32;;;;;;;9.83;4.33;;;16.60;99.90;;;;;;5033340;28;20411;-70
2022/10/29 00:07:58;;;;;;;7.87;3.20;;;16.60;99.90;;;;;;5033445;28;20418;-70
2022/10/29 00:10:24;;;;;;;8.50;3.17;;;16.70;99.90;;;;;;5033299;28;20182;-70
2022/10/29 00:12:50;;;;;;;5.40;3.20;;;16.70;99.90;;;;;;5033444;28;20953;-70
2022/10/29 00:15:15;;;;;;;5.43;4.47;;;16.60;99.90;;;;;;5032960;28;20448;-69
2022/10/29 00:17:41;;;;;;;4.27;3.50;;;16.60;99.90;;;;;;5031778;28;20181;-70
2022/10/29 00:20:08;;;;;;;7.20;3.37;;;16.90;99.90;;;;;;5033387;28;20420;-70
2022/10/29 00:22:33;;;;;;;4.23;3.13;;;16.90;99.90;;;;;;5032827;28;20202;-70
2022/10/29 00:24:59;;;;;;;7.30;3.60;;;16.90;99.90;;;;;;5033022;28;20518;-70
2022/10/29 00:27:25;;;;;;;4.67;3.50;;;16.90;99.90;;;;;;5033127;28;20540;-71
2022/10/29 00:29:50;;;;;;;7.50;4.43;;;16.80;99.90;;;;;;5033454;28;20724;-70
2022/10/29 00:32:16;;;;;;;8.30;3.70;;;16.90;99.90;;;;;;5032260;28;20196;-70
2022/10/29 00:34:42;;;;;;;7.80;3.97;;;16.90;99.90;;;;;;5031558;28;20188;-70
2022/10/29 00:37:07;;;;;;;8.93;3.33;;;16.90;99.90;;;;;;5022356;28;20675;-69
2022/10/29 00:39:33;;;;;;;10.43;3.50;;;16.90;99.90;;;;;;5027567;28;20174;-70
2022/10/29 00:41:59;;;;;;;4.70;3.20;;;17.00;99.90;;;;;;5033001;28;20682;-70
2022/10/29 00:44:28;;;;;;;6.50;2.80;;;16.90;99.90;;;;;;5032580;28;20556;-70
2022/10/29 00:47:01;;;;;;;7.70;4.10;;;16.90;99.90;;;;;;5032936;28;20411;-69
2022/10/29 00:49:27;;;;;;;8.63;3.90;;;16.90;99.90;;;;;;5032753;28;20466;-70
2022/10/29 00:51:53;;;;;;;6.20;3.47;;;16.90;99.90;;;;;;5001319;28;20423;-70
2022/10/29 00:54:19;;;;;;;6.40;4.30;;;16.90;99.90;;;;;;4991741;28;20436;-70
2022/10/29 00:56:59;;;;;;;7.90;3.70;;;17.00;99.90;;;;;;5006032;28;20460;-70
2022/10/29 00:59:25;;;;;;;8.13;4.27;;;16.90;99.90;;;;;;5012249;28;20248;-70
2022/10/29 01:01:51;;;;;;;9.03;4.20;;;16.80;99.90;;;;;;5036740;22;20489;-66
2022/10/29 01:04:17;;;;;;;5.83;3.30;;;16.80;99.90;;;;;;5013877;28;20414;-68
2022/10/29 01:06:43;;;;;;;7.67;3.93;;;16.70;99.90;;;;;;5006642;28;20217;-67
2022/10/29 01:09:09;;;;;;;7.97;4.17;;;16.70;99.90;;;;;;5013153;28;20424;-67
2022/10/29 01:12:08;;;;;;;5.00;4.50;;;16.80;99.90;;;;;;5012400;28;20437;-69
2022/10/29 01:14:58;;;;;;;7.47;5.20;;;16.70;99.90;;;;;;5013073;28;20170;-68
2022/10/29 01:18:07;;;;;;;6.87;4.23;;;16.70;99.90;;;;;;5001649;28;20461;-67
2022/10/29 01:21:04;;;;;;;9.27;5.33;;;16.60;99.90;;;;;;5005667;28;21003;-66
2022/10/29 01:24:17;;;;;;;7.57;3.70;;;16.70;99.90;;;;;;5012717;28;20404;-68
2022/10/29 01:27:12;;;;;;;9.43;4.30;;;16.70;99.90;;;;;;5000514;28;20411;-69
2022/10/29 01:29:38;;;;;;;8.70;4.70;;;16.60;99.90;;;;;;5034676;28;20411;-68
2022/10/29 01:32:09;;;;;;;9.33;5.03;;;16.50;99.90;;;;;;5036084;28;20435;-68
2022/10/29 01:34:42;;;;;;;14.33;4.70;;;16.40;99.90;;;;;;5025050;28;20967;-66
2022/10/29 01:37:40;;;;;;;13.23;5.10;;;16.30;99.90;;;;;;4994914;28;20474;-67
2022/10/29 01:40:27;;;;;;;6.07;4.60;;;16.30;99.90;;;;;;5012451;28;20504;-69
2022/10/29 01:43:13;;;;;;;10.03;4.17;;;16.20;99.90;;;;;;5011502;28;20512;-69
2022/10/29 01:45:44;;;;;;;9.43;3.93;;;16.20;99.90;;;;;;5009985;28;20427;-70
2022/10/29 01:48:18;;;;;;;11.77;5.47;;;16.20;99.90;;;;;;5012658;28;20415;-67
2022/10/29 01:50:48;;;;;;;7.20;5.80;;;16.20;99.90;;;;;;5008611;28;20540;-69
2022/10/29 01:53:16;;;;;;;8.93;4.70;;;16.30;99.90;;;;;;5001006;28;20453;-68
2022/10/29 01:55:41;;;;;;;12.77;4.60;;;16.30;99.90;;;;;;5010050;28;20451;-69
2022/10/29 01:58:08;;;;;;;10.33;5.20;;;16.30;99.90;;;;;;5004376;28;20768;-68
2022/10/29 02:00:48;;;;;;;11.50;5.40;;;16.20;99.90;;;;;;5012057;28;20617;-67
2022/10/29 02:03:46;;;;;;;9.10;4.27;;;16.10;99.90;;;;;;5017811;28;20519;-70
2022/10/29 02:06:25;;;;;;;9.13;4.60;;;16.20;99.90;;;;;;5007768;28;20416;-67
2022/10/29 02:09:00;;;;;;;10.77;5.30;;;16.20;99.90;;;;;;5030138;28;20517;-68
2022/10/29 02:12:09;;;;;;;11.07;5.37;;;16.10;99.90;;;;;;5008651;28;20447;-68
2022/10/29 02:14:45;;;;;;;6.93;4.80;;;16.00;99.90;;;;;;5031352;28;20422;-67
2022/10/29 02:17:10;;;;;;;13.57;6.10;;;15.90;99.90;;;;;;5031405;28;20819;-67
2022/10/29 02:19:36;;;;;;;8.37;5.10;;;16.00;99.90;;;;;;5031193;28;20417;-67
2022/10/29 02:22:02;;;;;;;12.27;5.50;;;15.90;99.90;;;;;;5030994;28;20201;-67
2022/10/29 02:24:27;;;;;;;9.70;6.03;;;15.90;99.90;;;;;;5031371;28;20435;-68
2022/10/29 02:26:53;;;;;;;12.17;6.60;;;15.90;99.90;;;;;;5031038;28;20714;-69
2022/10/29 02:29:18;;;;;;;13.93;5.63;;;15.80;99.90;;;;;;5013865;28;20189;-69
2022/10/29 02:31:44;;;;;;;9.33;6.03;;;16.00;99.90;;;;;;5011361;28;20569;-69
2022/10/29 02:34:10;;;;;;;10.80;6.07;;;15.90;99.90;;;;;;5011020;28;20541;-69
2022/10/29 02:36:35;;;;;;;9.60;4.87;;;15.90;99.90;;;;;;5005008;28;20686;-68
2022/10/29 02:39:01;;;;;;;10.60;5.10;;;15.80;99.90;;;;;;5011274;28;20177;-68
2022/10/29 02:41:26;;;;;;;10.60;5.90;;;15.80;99.90;;;;;;5011157;28;20199;-69
2022/10/29 02:43:52;;;;;;;9.23;5.40;;;15.70;99.90;;;;;;5011129;28;20208;-67
2022/10/29 02:46:19;;;;;;;8.70;5.17;;;15.80;99.90;;;;;;5010210;28;20611;-68
2022/10/29 02:48:45;;;;;;;12.80;5.80;;;15.70;99.90;;;;;;5010937;28;20193;-68
2022/10/29 02:51:11;;;;;;;9.40;4.67;;;15.70;99.90;;;;;;5016927;28;20415;-68
2022/10/29 02:53:37;;;;;;;6.80;4.77;;;15.60;99.90;;;;;;5021745;28;20191;-68
2022/10/29 02:56:03;;;;;;;10.37;5.90;;;15.60;99.90;;;;;;5013559;28;20292;-68
2022/10/29 02:58:29;;;;;;;9.10;6.00;;;15.60;99.90;;;;;;5015415;28;20657;-68
2022/10/29 03:00:54;;;;;;;10.20;6.07;;;15.60;99.90;;;;;;5014198;28;20418;-68
2022/10/29 03:03:21;;;;;;;10.10;5.37;;;15.60;99.90;;;;;;5014780;28;20212;-68
2022/10/29 03:05:46;;;;;;;6.93;4.20;;;15.60;99.90;;;;;;5014023;28;20207;-67
2022/10/29 03:08:12;;;;;;;6.90;5.80;;;15.60;99.90;;;;;;5013787;28;20796;-67
2022/10/29 03:10:37;;;;;;;9.50;5.40;;;15.60;99.90;;;;;;5014583;28;20218;-68
2022/10/29 03:13:03;;;;;;;13.30;6.30;;;15.60;99.90;;;;;;5015711;28;20619;-67
2022/10/29 03:15:28;;;;;;;8.23;5.30;;;15.60;99.90;;;;;;5016420;28;20259;-70
2022/10/29 03:17:54;;;;;;;7.37;5.53;;;15.50;99.90;;;;;;5020160;28;20186;-68
2022/10/29 03:20:20;;;;;;;7.80;5.03;;;15.50;99.90;;;;;;5011365;28;20895;-69
2022/10/29 03:22:45;;;;;;;8.63;5.20;;;15.40;99.90;;;;;;5014520;28;20304;-69
2022/10/29 03:25:11;;;;;;;11.93;5.40;;;15.40;99.90;;;;;;5013671;28;20177;-68
2022/10/29 03:27:43;;;;;;;11.60;4.27;;;15.40;99.90;;;;;;5014832;28;20208;-68
2022/10/29 03:30:13;;;;;;;5.37;3.80;;;15.40;99.90;;;;;;5013517;28;20185;-67
2022/10/29 03:32:40;;;;;;;8.00;4.83;;;15.40;99.90;;;;;;5015195;28;20428;-67
2022/10/29 03:35:07;;;;;;;6.80;4.20;;;15.40;99.90;;;;;;5014667;28;20427;-68
2022/10/29 03:37:32;;;;;;;8.87;7.37;;;15.30;99.90;;;;;;5004637;28;20435;-68
2022/10/29 03:39:58;;;;;;;7.37;5.83;;;15.30;99.90;;;;;;5002707;28;20409;-68
2022/10/29 03:42:23;;;;;;;9.70;4.90;;;15.30;99.90;;;;;;5013859;28;20250;-67
2022/10/29 03:44:49;;;;;;;13.23;5.93;;;15.20;99.90;;;;;;5013847;28;20259;-68
2022/10/29 03:47:15;;;;;;;8.03;6.07;;;15.20;99.90;;;;;;5014287;28;20787;-68
2022/10/29 03:49:40;;;;;;;6.43;4.70;;;15.20;99.90;;;;;;5014548;28;20185;-68
2022/10/29 03:52:06;;;;;;;12.60;5.50;;;15.20;99.90;;;;;;5014904;28;20551;-68
2022/10/29 03:54:31;;;;;;;11.60;7.30;;;15.20;99.90;;;;;;5008616;28;20627;-67
2022/10/29 03:56:56;;;;;;;11.20;6.67;;;15.20;99.90;;;;;;5012642;28;20213;-68
2022/10/29 03:59:22;;;;;;;12.60;6.00;;;15.20;99.90;;;;;;5012508;28;20965;-69
2022/10/29 04:01:47;;;;;;;10.00;5.23;;;15.20;99.90;;;;;;5013720;28;20211;-69
2022/10/29 04:04:13;;;;;;;7.73;4.50;;;15.20;99.90;;;;;;5013967;28;20181;-68
2022/10/29 04:06:38;;;;;;;12.10;4.53;;;15.20;99.90;;;;;;5013640;28;20657;-68
2022/10/29 04:09:04;;;;;;;10.00;4.70;;;15.10;99.90;;;;;;5014530;28;20275;-67
2022/10/29 04:11:29;;;;;;;8.63;4.97;;;15.10;99.90;;;;;;5007134;28;20588;-68
2022/10/29 04:13:55;;;;;;;13.50;5.90;;;15.10;99.90;;;;;;5003006;28;20266;-69
2022/10/29 04:16:21;;;;;;;8.30;4.90;;;15.10;99.90;;;;;;5011446;28;20207;-68
2022/10/29 04:18:47;;;;;;;18.53;6.80;;;15.10;99.90;;;;;;5012019;28;20177;-67
2022/10/29 04:21:13;;;;;;;9.33;6.90;;;15.10;99.90;;;;;;5013781;28;20582;-68
2022/10/29 04:23:38;;;;;;;10.37;5.90;;;15.10;99.90;;;;;;5014031;28;20443;-68
2022/10/29 04:26:04;;;;;;;11.43;5.60;;;15.00;99.90;;;;;;5014090;28;20177;-66
2022/10/29 04:28:29;;;;;;;6.87;4.13;;;15.00;99.90;;;;;;5010989;28;20212;-68
2022/10/29 04:30:55;;;;;;;8.77;5.60;;;15.00;99.90;;;;;;5009589;28;20230;-67
2022/10/29 04:33:20;;;;;;;8.83;4.40;;;15.00;99.90;;;;;;5016260;28;20203;-69
2022/10/29 04:35:53;;;;;;;6.93;4.70;;;15.00;99.90;;;;;;5032368;28;20191;-68
2022/10/29 04:38:20;;;;;;;7.27;4.60;;;15.00;99.90;;;;;;5013236;28;20177;-67
2022/10/29 04:40:45;;;;;;;10.77;4.80;;;15.00;99.90;;;;;;5012737;28;20404;-68
2022/10/29 04:43:11;;;;;;;14.43;4.87;;;15.00;99.90;;;;;;5012937;28;20456;-67
2022/10/29 04:45:36;;;;;;;9.20;5.50;;;15.00;99.90;;;;;;5012821;28;20177;-68
2022/10/29 04:48:04;;;;;;;8.37;5.10;;;14.90;99.90;;;;;;5012844;28;20191;-68
2022/10/29 04:50:30;;;;;;;7.57;5.20;;;14.90;99.90;;;;;;5013119;28;20203;-66
2022/10/29 04:52:59;;;;;;;7.47;5.13;;;14.90;99.90;;;;;;5012733;28;20924;-68
2022/10/29 04:55:26;;;;;;;10.50;5.30;;;14.90;99.90;;;;;;5012499;28;20463;-68
2022/10/29 04:57:51;;;;;;;9.53;5.70;;;14.90;99.90;;;;;;5012589;28;20507;-69
2022/10/29 05:00:17;;;;;;;9.57;5.97;;;14.90;99.90;;;;;;5013694;28;20491;-70
2022/10/29 05:02:48;;;;;;;6.97;4.70;;;14.90;99.90;;;;;;5014675;28;20204;-70
2022/10/29 05:05:13;;;;;;;9.23;5.37;;;14.90;99.90;;;;;;5014358;28;20411;-67
2022/10/29 05:07:39;;;;;;;8.80;5.03;;;14.90;99.90;;;;;;5013533;28;20785;-69
2022/10/29 05:10:04;;;;;;;10.83;6.00;;;14.90;99.90;;;;;;5013447;28;20187;-69
2022/10/29 05:12:30;;;;;;;6.13;4.03;;;14.90;99.90;;;;;;5013268;28;20567;-69
2022/10/29 05:14:55;;;;;;;9.30;4.70;;;14.90;99.90;;;;;;5012398;28;20266;-68
2022/10/29 05:17:21;;;;;;;8.63;6.10;;;14.80;99.90;;;;;;5012019;28;20278;-67
2022/10/29 05:19:46;;;;;;;10.47;5.57;;;14.80;99.90;;;;;;5012589;28;20173;-70
2022/10/29 05:22:12;;;;;;;6.53;5.13;;;14.80;99.90;;;;;;5010973;28;20189;-68
2022/10/29 05:24:37;;;;;;;13.53;6.40;;;14.80;99.90;;;;;;5012717;28;20176;-68
2022/10/29 05:27:05;;;;;;;6.80;4.50;;;14.90;99.90;;;;;;5011125;28;20169;-68
2022/10/29 05:29:31;;;;;;;7.33;5.30;;;14.90;99.90;;;;;;5012315;28;20193;-67
2022/10/29 05:31:56;;;;;;;11.43;5.23;;;14.80;99.90;;;;;;5012436;28;20440;-68
2022/10/29 05:34:22;;;;;;;9.87;5.23;;;14.80;99.90;;;;;;5012642;28;20191;-70
2022/10/29 05:36:47;;;;;;;7.13;5.00;;;14.80;99.90;;;;;;5012791;28;20559;-68
2022/10/29 05:39:13;;;;;;;14.17;5.90;;;14.80;99.90;;;;;;5012284;28;20197;-67
2022/10/29 05:41:38;;;;;;;10.97;5.80;;;14.80;99.90;;;;;;5005600;28;20669;-68
2022/10/29 05:44:04;;;;;;;6.07;5.57;;;14.80;99.90;;;;;;5010099;28;20180;-67
2022/10/29 05:46:29;;;;;;;10.93;5.80;;;14.70;99.90;;;;;;5010260;28;20511;-67
2022/10/29 05:48:55;;;;;;;8.50;5.97;;;14.70;99.90;;;;;;5012069;28;20176;-69
2022/10/29 05:51:20;;;;;;;8.40;5.43;;;14.70;99.90;;;;;;5008788;28;20862;-68
2022/10/29 05:53:47;;;;;;;12.50;4.87;;;14.70;99.90;;;;;;5011907;28;20184;-68
2022/10/29 05:56:12;;;;;;;10.63;8.17;;;14.80;99.90;;;;;;5012471;28;20201;-67
2022/10/29 05:58:38;;;;;;;13.60;5.90;;;14.70;99.90;;;;;;5006988;28;20423;-67
2022/10/29 06:01:08;;;;;;;9.40;6.70;;;14.70;99.90;;;;;;5011249;28;20180;-67
2022/10/29 06:03:33;;;;;;;14.17;7.13;;;14.60;99.90;;;;;;5010712;28;20199;-68
2022/10/29 06:05:59;;;;;;;9.33;5.70;;;14.60;99.90;;;;;;5011973;28;20491;-69
2022/10/29 06:08:25;;;;;;;11.00;5.43;;;14.60;99.90;;;;;;5011555;28;20245;-69
2022/10/29 06:10:50;;;;;;;8.70;5.03;;;14.60;99.90;;;;;;5011335;28;20183;-69
2022/10/29 06:13:18;;;;;;;12.63;6.00;;;14.60;99.90;;;;;;5012452;28;20188;-69
2022/10/29 06:15:44;;;;;;;10.13;6.17;;;14.50;99.90;;;;;;5006165;28;20689;-69
2022/10/29 06:18:10;;;;;;;9.47;5.83;;;14.60;99.90;;;;;;5010710;28;20429;-69
2022/10/29 06:20:37;;;;;;;11.20;5.93;;;14.60;99.90;;;;;;5010793;28;20427;-69
2022/10/29 06:23:02;;;;;;;10.03;5.70;;;14.70;99.90;;;;;;5011324;28;20636;-67
2022/10/29 06:25:28;;;;;;;11.77;6.23;;;14.70;99.90;;;;;;5011044;28;20510;-67
2022/10/29 06:28:02;;;;;;;8.93;6.47;;;14.60;99.90;;;;;;5011272;28;22360;-69
2022/10/29 06:30:29;;;;;;;9.80;5.17;;;14.70;99.90;;;;;;5011152;28;20186;-68
2022/10/29 06:32:55;;;;;;;7.00;4.60;;;14.70;99.90;;;;;;5004143;28;20447;-68
2022/10/29 06:35:20;;;;;;;9.70;5.23;;;14.80;99.90;;;;;;5002739;28;20938;-68
2022/10/29 06:37:46;;;;;;;8.67;5.00;;;14.80;99.90;;;;;;5006368;28;20243;-68
2022/10/29 06:40:11;;;;;;;7.57;5.03;;;14.80;99.90;;;;;;5007915;28;20227;-68
2022/10/29 06:42:37;;;;;;;7.60;5.07;;;14.90;99.90;;;;;;5010498;28;20735;-68
2022/10/29 06:45:03;;;;;;;7.87;5.20;;;15.00;99.90;;;;;;5010433;28;20188;-66
2022/10/29 06:47:28;;;;;;;7.10;4.63;;;15.10;99.90;;;;;;5011807;28;20549;-68
2022/10/29 06:49:54;;;;;;;10.67;6.00;;;15.10;99.90;;;;;;5010577;28;20666;-68
2022/10/29 06:52:19;;;;;;;10.00;7.60;;;15.10;99.90;;;;;;5025791;28;20204;-67
2022/10/29 06:54:45;;;;;;;11.20;5.80;;;15.20;99.90;;;;;;5011103;28;20194;-68
2022/10/29 06:57:10;;;;;;;9.53;5.27;;;15.30;99.90;;;;;;5011147;28;20217;-68
2022/10/29 06:59:36;;;;;;;10.33;4.80;;;15.50;99.90;;;;;;5010895;28;20281;-68
2022/10/29 07:02:01;;;;;;;10.50;5.80;;;15.60;99.90;;;;;;5010844;28;20209;-67
2022/10/29 07:04:27;;;;;;;9.67;5.60;;;15.70;99.90;;;;;;5017222;28;20169;-68
2022/10/29 07:06:52;;;;;;;8.27;4.43;;;15.80;99.90;;;;;;5009877;28;20266;-67
2022/10/29 07:09:18;;;;;;;7.63;4.67;;;16.00;99.90;;;;;;5010820;28;20594;-68
2022/10/29 07:11:43;;;;;;;12.90;6.10;;;16.00;99.90;;;;;;5051766;22;20247;-71
2022/10/29 07:14:09;;;;;;;18.63;6.20;;;16.00;99.90;;;;;;5061829;28;20300;-70
2022/10/29 07:16:35;;;;;;;8.93;5.20;;;16.10;99.90;;;;;;5048882;28;20192;-71
2022/10/29 07:19:02;;;;;;;7.03;5.17;;;16.30;99.90;;;;;;5046920;28;20772;-66
2022/10/29 07:21:27;;;;;;;8.27;4.67;;;16.40;99.90;;;;;;5035121;28;20469;-68
2022/10/29 07:23:53;;;;;;;9.00;4.93;;;16.40;99.90;;;;;;5031043;28;20410;-68
2022/10/29 07:26:18;;;;;;;10.17;4.77;;;16.30;99.90;;;;;;5031069;28;20174;-67
2022/10/29 07:28:44;;;;;;;7.70;5.20;;;16.40;99.90;;;;;;5033214;28;20579;-67
2022/10/29 07:31:09;;;;;;;8.73;5.10;;;16.30;99.90;;;;;;5029809;28;20194;-68
2022/10/29 07:33:35;;;;;;;7.73;4.13;;;16.30;99.90;;;;;;5042298;28;20178;-68
2022/10/29 07:36:01;;;;;;;10.20;5.50;;;16.30;99.90;;;;;;5037654;28;20211;-67
2022/10/29 07:38:26;;;;;;;16.37;10.53;;;16.30;99.90;;;;;;5029588;28;20665;-67
2022/10/29 07:40:52;;;;;;;7.67;4.70;;;16.30;99.90;;;;;;5030256;28;20198;-67
2022/10/29 07:43:19;;;;;;;6.90;5.03;;;16.40;99.90;;;;;;5033257;28;20731;-67
2022/10/29 07:45:48;;;;;;;9.97;5.60;;;16.50;99.90;;;;;;5033717;28;20421;-67
2022/10/29 07:48:14;;;;;;;6.83;5.87;;;16.80;99.90;;;;;;5034525;28;20406;-67
2022/10/29 07:50:40;;;;;;;8.53;5.07;;;16.90;99.90;;;;;;5033640;28;20789;-67
2022/10/29 07:53:06;;;;;;;6.87;3.83;;;17.00;99.90;;;;;;5034684;28;20524;-67
2022/10/29 07:55:32;;;;;;;6.63;4.23;;;17.00;99.90;;;;;;5034307;28;20199;-67
2022/10/29 07:58:01;;;;;;;7.03;4.80;;;17.50;99.90;;;;;;5031126;28;20525;-66
2022/10/29 08:00:28;;;;;;;8.67;5.10;;;17.50;99.90;;;;;;5026009;28;20189;-67
2022/10/29 08:02:54;;;;;;;6.23;4.50;;;17.60;99.90;;;;;;5033078;28;20414;-69
2022/10/29 08:05:21;;;;;;;12.70;5.57;;;17.50;99.90;;;;;;5032700;28;20489;-67
2022/10/29 08:07:46;;;;;;;6.60;4.27;;;17.70;99.90;;;;;;5033265;28;20525;-67
2022/10/29 08:10:12;;;;;;;10.10;5.67;;;17.70;99.90;;;;;;5036260;28;20537;-67
2022/10/29 08:12:38;;;;;;;13.87;5.03;;;17.60;99.90;;;;;;5038528;28;20317;-69
2022/10/29 08:15:04;;;;;;;6.20;5.37;;;17.50;99.90;;;;;;5033342;28;20169;-66
2022/10/29 08:17:31;;;;;;;9.60;4.80;;;17.70;99.90;;;;;;5016065;28;20197;-67
2022/10/29 08:19:57;;;;;;;6.63;4.80;;;18.30;99.90;;;;;;5028008;28;20796;-67
2022/10/29 08:22:22;;;;;;;6.53;5.43;;;18.00;99.90;;;;;;5032077;28;20508;-67
2022/10/29 08:24:48;;;;;;;9.77;6.10;;;17.70;99.90;;;;;;5032115;28;20253;-67
2022/10/29 08:27:13;;;;;;;14.37;6.70;;;17.90;99.90;;;;;;5033497;28;20179;-68
2022/10/29 08:29:39;;;;;;;9.30;6.10;;;17.70;99.90;;;;;;5032786;28;20179;-68
2022/10/29 08:32:04;;;;;;;7.13;5.70;;;18.10;99.90;;;;;;5033048;28;20185;-67
2022/10/29 08:34:30;;;;;;;7.80;6.23;;;18.50;99.90;;;;;;5028818;28;20600;-68
2022/10/29 08:36:55;;;;;;;12.77;7.03;;;18.90;99.90;;;;;;5035441;28;20204;-68
2022/10/29 08:39:21;;;;;;;15.57;6.30;;;18.80;99.90;;;;;;5032724;28;20879;-68
2022/10/29 08:42:20;;;;;;;14.20;6.73;;;18.90;99.90;;;;;;5031715;28;20222;-68
2022/10/29 08:45:13;;;;;;;10.27;6.20;;;19.40;99.90;;;;;;5031259;28;20223;-67
2022/10/29 08:48:00;;;;;;;9.53;6.00;;;19.00;99.90;;;;;;5030850;28;20895;-67
2022/10/29 08:50:33;;;;;;;8.63;4.63;;;18.70;99.90;;;;;;5032037;28;20970;-68
2022/10/29 08:53:00;;;;;;;6.90;4.40;;;19.10;99.90;;;;;;5030687;28;20464;-68
2022/10/29 08:55:34;;;;;;;11.40;5.33;;;19.20;99.90;;;;;;5031762;28;20423;-68
2022/10/29 08:58:28;;;;;;;9.87;4.80;;;19.10;99.90;;;;;;5032076;28;20411;-69
2022/10/29 09:00:56;;;;;;;12.17;5.80;;;19.00;99.90;;;;;;5031972;28;20825;-68
2022/10/29 09:03:24;;;;;;;7.07;5.37;;;18.50;99.90;;;;;;5031810;28;20408;-68
2022/10/29 09:06:12;;;;;;;7.00;4.67;;;18.90;99.90;;;;;;5032001;28;20446;-67
2022/10/29 09:09:07;;;;;;;7.53;4.30;;;18.80;99.90;;;;;;5031386;28;20879;-67
2022/10/29 09:12:22;;;;;;;10.97;4.40;;;18.70;99.90;;;;;;5030896;28;20463;-68
2022/10/29 09:15:14;;;;;;;8.10;4.73;;;18.50;99.90;;;;;;4960329;28;20514;-67
2022/10/29 09:18:02;;;;;;;7.73;5.30;;;18.50;99.90;;;;;;5031219;28;20418;-67
2022/10/29 09:20:35;;;;;;;9.30;5.97;;;18.40;99.90;;;;;;5010426;28;20483;-68
2022/10/29 09:23:21;;;;;;;14.50;6.00;;;18.70;99.90;;;;;;5032361;28;20465;-64
2022/10/29 09:26:04;;;;;;;7.40;4.53;;;18.90;99.90;;;;;;5030663;28;20433;-68
2022/10/29 09:29:13;;;;;;;12.17;5.47;;;18.80;99.90;;;;;;5030831;28;20916;-67
2022/10/29 09:32:04;;;;;;;11.43;5.33;;;18.70;99.90;;;;;;5034030;28;20483;-68
2022/10/29 09:34:30;;;;;;;8.17;4.70;;;18.70;99.90;;;;;;5031360;28;20408;-67
2022/10/29 09:36:56;;;;;;;8.87;4.60;;;18.50;99.90;;;;;;5046943;28;20455;-67
2022/10/29 09:39:40;;;;;;;10.43;5.20;;;18.80;99.90;;;;;;5051902;28;20182;-69
2022/10/29 09:42:13;;;;;;;10.17;5.20;;;18.90;99.90;;;;;;5047249;28;20558;-68
2022/10/29 09:44:42;;;;;;;11.40;4.80;;;18.80;99.90;;;;;;5010947;28;20410;-65
2022/10/29 09:47:28;;;;;;;7.93;4.63;;;18.70;99.90;;;;;;5011078;28;20411;-67
2022/10/29 09:50:05;;;;;;;6.77;4.00;;;18.50;99.90;;;;;;5025952;28;20460;-71
2022/10/29 09:52:34;;;;;;;4.97;4.03;;;18.30;99.90;;;;;;5012466;28;20920;-68
2022/10/29 09:55:01;;;;;;;11.20;5.80;;;18.30;99.90;;;;;;5019177;28;20796;-67
2022/10/29 09:57:30;;;;;;;9.53;4.47;;;18.40;99.90;;;;;;5028129;28;20468;-67
2022/10/29 10:00:03;;;;;;;9.73;5.47;;;18.40;99.90;;;;;;5029396;28;20432;-67
2022/10/29 10:02:40;;;;;;;6.17;4.70;;;18.50;99.90;;;;;;5029710;28;20424;-67
2022/10/29 10:05:21;;;;;;;10.30;4.63;;;18.60;99.90;;;;;;5029783;28;20517;-68
2022/10/29 10:08:10;;;;;;;11.47;5.90;;;18.70;99.90;;;;;;5031382;28;20411;-68
2022/10/29 10:10:54;;;;;;;8.97;4.90;;;18.50;99.90;;;;;;5050791;28;20449;-67
2022/10/29 10:13:23;;;;;;;6.77;5.07;;;18.60;99.90;;;;;;5043033;28;20440;-69
2022/10/29 10:15:52;;;;;;;7.83;5.50;;;18.90;99.90;;;;;;5029885;28;20707;-70
2022/10/29 10:18:19;;;;;;;14.90;6.03;;;19.20;99.90;;;;;;5029056;28;20549;-69
2022/10/29 10:20:58;;;;;;;21.63;7.07;;;19.20;99.90;;;;;;5032914;28;20435;-69
2022/10/29 10:23:42;;;;;;;12.97;7.07;;;19.10;99.90;;;;;;5046167;28;20774;-69
2022/10/29 10:26:38;;;;;;;9.60;5.60;;;19.00;99.90;;;;;;5029908;28;20433;-70
2022/10/29 10:29:33;;;;;;;12.20;6.43;;;19.10;99.90;;;;;;5031528;28;21251;-70
2022/10/29 10:31:59;;;;;;;8.67;5.33;;;19.60;99.90;;;;;;5018810;28;20539;-71
2022/10/29 10:34:45;;;;;;;12.27;6.13;;;19.60;99.90;;;;;;5031258;28;20415;-69
2022/10/29 10:37:17;;;;;;;10.70;5.60;;;19.90;99.90;;;;;;5029620;28;20209;-69
2022/10/29 10:39:45;;;;;;;9.40;5.40;;;19.80;99.90;;;;;;5034840;28;20421;-68
2022/10/29 10:42:19;;;;;;;11.87;5.07;;;19.80;99.90;;;;;;5030183;28;20491;-68
2022/10/29 10:44:48;;;;;;;8.53;4.73;;;19.80;99.90;;;;;;5030491;28;20951;-69
2022/10/29 10:47:17;;;;;;;7.80;5.60;;;19.70;99.90;;;;;;5030590;28;20419;-69
2022/10/29 10:49:42;;;;;;;5.83;4.77;;;19.90;99.90;;;;;;5036394;28;20488;-68
2022/10/29 10:52:29;;;;;;;6.60;5.10;;;19.80;99.90;;;;;;5041391;28;20427;-68
2022/10/29 10:54:59;;;;;;;12.47;6.20;;;19.70;99.90;;;;;;5030063;28;20538;-68
2022/10/29 10:57:31;;;;;;;11.67;5.50;;;19.70;99.90;;;;;;5030154;28;20477;-69
2022/10/29 11:00:15;;;;;;;7.93;4.80;;;19.80;99.90;;;;;;5029781;28;20462;-69
2022/10/29 11:02:53;;;;;;;9.83;5.63;;;20.10;99.90;;;;;;5030159;28;20425;-70
2022/10/29 11:05:21;;;;;;;6.90;4.67;;;20.10;99.90;;;;;;5030452;28;20413;-70
2022/10/29 11:08:03;;;;;;;10.43;5.60;;;20.10;99.90;;;;;;5030268;28;20448;-69
2022/10/29 11:10:57;;;;;;;7.30;4.70;;;20.00;99.90;;;;;;5028959;28;20564;-69
2022/10/29 11:13:29;;;;;;;6.10;4.60;;;19.70;99.90;;;;;;5024522;28;20465;-70
2022/10/29 11:16:06;;;;;;;5.90;3.93;;;19.80;99.90;;;;;;5024964;28;20461;-70
2022/10/29 11:19:00;;;;;;;11.07;5.67;;;19.90;99.90;;;;;;5033913;28;20411;-69
2022/10/29 11:21:34;;;;;;;9.63;5.47;;;20.00;99.90;;;;;;5033060;28;20995;-69
2022/10/29 11:24:12;;;;;;;6.93;4.27;;;19.90;99.90;;;;;;5038587;28;20405;-70
2022/10/29 11:26:49;;;;;;;7.57;3.70;;;20.10;99.90;;;;;;5033953;28;20416;-69
2022/10/29 11:29:29;;;;;;;7.77;4.57;;;20.30;99.90;;;;;;5033458;28;20425;-69
2022/10/29 11:32:34;;;;;;;8.50;4.77;;;20.00;99.90;;;;;;5028147;28;20431;-70
2022/10/29 11:35:16;;;;;;;8.57;4.90;;;20.20;99.90;;;;;;5033468;28;20456;-69
2022/10/29 11:38:08;;;;;;;9.60;4.13;;;20.10;99.90;;;;;;5027142;28;20799;-69
2022/10/29 11:40:45;;;;;;;11.90;5.60;;;19.90;99.90;;;;;;5032242;28;20465;-69
2022/10/29 11:43:12;;;;;;;8.13;3.53;;;19.70;99.90;;;;;;5034246;28;20825;-70
2022/10/29 11:45:53;;;;;;;11.20;4.17;;;19.80;99.90;;;;;;5033312;28;20438;-69
2022/10/29 11:48:58;;;;;;;6.17;4.00;;;19.90;99.90;;;;;;5032704;28;20418;-69
2022/10/29 11:51:27;;;;;;;6.83;4.40;;;19.90;99.90;;;;;;5027568;28;20913;-69
2022/10/29 11:54:05;;;;;;;5.07;4.50;;;20.00;99.90;;;;;;5032684;28;20425;-69
2022/10/29 11:56:46;;;;;;;6.07;3.80;;;19.90;99.90;;;;;;5021209;28;20688;-73
2022/10/29 11:59:30;;;;;;;8.73;4.03;;;19.80;99.90;;;;;;5038262;28;20875;-69
2022/10/29 12:02:42;;;;;;;11.00;5.30;;;19.80;99.90;;;;;;5034271;28;20430;-70
2022/10/29 12:05:33;;;;;;;8.73;4.20;;;19.70;99.90;;;;;;5005936;28;20468;-71
2022/10/29 12:08:08;;;;;;;11.70;4.30;;;19.60;99.90;;;;;;5027817;28;20421;-70
2022/10/29 12:10:56;;;;;;;10.10;4.90;;;19.50;99.90;;;;;;5018187;28;20492;-71
2022/10/29 12:13:54;;;;;;;7.13;4.00;;;19.70;99.90;;;;;;5015339;28;20410;-71
2022/10/29 12:16:35;;;;;;;7.10;4.70;;;19.90;99.90;;;;;;5025899;28;20455;-70
2022/10/29 12:19:05;;;;;;;5.70;4.03;;;19.80;99.90;;;;;;5033429;28;20424;-71
2022/10/29 12:22:00;;;;;;;8.77;4.67;;;19.70;99.90;;;;;;5034801;28;20549;-71
2022/10/29 12:25:02;;;;;;;10.00;4.33;;;19.90;99.90;;;;;;5034425;28;20391;-71
2022/10/29 12:27:52;;;;;;;12.07;5.77;;;20.10;99.90;;;;;;5021629;28;20446;-71
2022/10/29 12:30:20;;;;;;;7.87;3.93;;;20.10;99.90;;;;;;5012418;28;20437;-70
2022/10/29 12:33:03;;;;;;;9.97;4.00;;;20.20;99.90;;;;;;5012694;28;20418;-71
2022/10/29 12:35:41;;;;;;;4.97;3.40;;;20.50;99.90;;;;;;5014079;28;20487;-70
2022/10/29 12:38:24;;;;;;;9.50;4.10;;;20.40;99.90;;;;;;5012119;28;20494;-71
2022/10/29 12:40:59;;;;;;;12.23;3.93;;;20.50;99.90;;;;;;5013911;28;20423;-71
2022/10/29 12:43:30;;;;;;;10.17;5.63;;;20.40;99.90;;;;;;5019434;28;21013;-70
2022/10/29 12:46:22;;;;;;;6.93;4.60;;;20.30;99.90;;;;;;5035358;28;20927;-70
2022/10/29 12:49:20;;;;;;;8.30;4.33;;;20.30;99.90;;;;;;5028305;28;20403;-70
2022/10/29 12:52:14;;;;;;;7.80;4.77;;;20.40;99.90;;;;;;5009620;28;20431;-71
2022/10/29 12:54:43;;;;;;;11.00;5.00;;;20.40;99.90;;;;;;5032321;28;20405;-70
2022/10/29 12:57:12;;;;;;;6.87;4.13;;;20.50;99.90;;;;;;5032241;28;20456;-71
2022/10/29 12:59:39;;;;;;;6.47;4.67;;;20.50;99.90;;;;;;5036277;28;20404;-70
2022/10/29 13:02:28;;;;;;;9.97;4.57;;;20.60;99.90;;;;;;5041130;28;20416;-69
2022/10/29 13:05:09;;;;;;;8.10;4.70;;;20.70;99.90;;;;;;5045195;28;20414;-69
2022/10/29 13:07:46;;;;;;;6.17;4.13;;;20.70;99.90;;;;;;5052573;28;20406;-70